createdAt,value
2019-04-28T00:00:45.255Z,22.70
2019-04-28T00:01:45.227Z,27.90
2019-04-28T00:02:45.197Z,25.10
2019-04-28T00:03:45.242Z,25.80
2019-04-28T00:04:45.197Z,24.90
2019-04-28T00:05:45.231Z,26.90
2019-04-28T00:06:45.227Z,23.60
2019-04-28T00:07:45.157Z,23.50
2019-04-28T00:08:45.158Z,22.50
2019-04-28T00:09:45.147Z,21.70
2019-04-28T00:10:45.113Z,23.80
2019-04-28T00:11:45.676Z,24.90
2019-04-28T00:12:45.100Z,17.60
2019-04-28T00:13:45.134Z,23.30
2019-04-28T00:14:45.069Z,23.50
2019-04-28T00:15:45.097Z,25.70
2019-04-28T00:16:45.078Z,25.10
2019-04-28T00:17:45.072Z,21.30
2019-04-28T00:18:45.039Z,23.00
2019-04-28T00:19:45.028Z,20.50
2019-04-28T00:20:45.050Z,21.40
2019-04-28T00:21:45.034Z,17.80
2019-04-28T00:22:44.970Z,22.00
2019-04-28T00:23:44.990Z,21.00
2019-04-28T00:24:45.040Z,23.70
2019-04-28T00:25:45.000Z,24.00
2019-04-28T00:26:44.940Z,22.90
2019-04-28T00:27:44.944Z,25.50
2019-04-28T00:28:45.620Z,23.40
2019-04-28T00:29:46.316Z,24.60
2019-04-28T00:30:44.946Z,25.10
2019-04-28T00:31:44.910Z,22.80
2019-04-28T00:32:44.887Z,28.50
2019-04-28T00:33:44.858Z,26.00
2019-04-28T00:34:44.846Z,21.00
2019-04-28T00:35:45.617Z,21.90
2019-04-28T00:36:44.828Z,22.30
2019-04-28T00:37:44.822Z,24.60
2019-04-28T00:38:44.810Z,26.10
2019-04-28T00:39:44.843Z,18.20
2019-04-28T00:40:44.784Z,25.20
2019-04-28T00:41:44.793Z,21.70
2019-04-28T00:42:44.761Z,22.00
2019-04-28T00:43:44.782Z,22.70
2019-04-28T00:44:44.735Z,22.10
2019-04-28T00:45:44.784Z,26.30
2019-04-28T00:46:44.710Z,21.70
2019-04-28T00:47:44.709Z,24.70
2019-04-28T00:48:44.694Z,23.20
2019-04-28T00:49:44.739Z,22.10
2019-04-28T00:50:44.670Z,27.10
2019-04-28T00:51:44.651Z,23.20
2019-04-28T00:52:44.645Z,21.90
2019-04-28T00:53:44.700Z,21.20
2019-04-28T00:54:45.145Z,24.30
2019-04-28T00:55:44.608Z,22.70
2019-04-28T00:56:44.608Z,21.70
2019-04-28T00:57:46.112Z,24.60
2019-04-28T00:58:44.579Z,21.20
2019-04-28T00:59:54.194Z,20.00
2019-04-28T01:00:45.549Z,19.90
2019-04-28T01:01:44.578Z,20.60
2019-04-28T01:02:44.549Z,23.50
2019-04-28T01:03:44.677Z,20.60
2019-04-28T01:06:48.113Z,18.30
2019-04-28T01:07:47.377Z,18.30
2019-04-28T01:08:47.384Z,22.30
2019-04-28T01:09:47.331Z,23.30
2019-04-28T01:10:47.329Z,21.00
2019-04-28T01:11:47.337Z,21.90
2019-04-28T01:12:47.339Z,22.80
2019-04-28T01:13:47.279Z,23.60
2019-04-28T01:14:47.259Z,21.80
2019-04-28T01:15:47.258Z,23.60
2019-04-28T01:16:47.257Z,17.50
2019-04-28T01:17:49.506Z,22.00
2019-04-28T01:18:47.215Z,22.10
2019-04-28T01:19:47.257Z,19.10
2019-04-28T01:20:47.197Z,23.10
2019-04-28T01:21:47.267Z,22.00
2019-04-28T01:22:47.191Z,22.30
2019-04-28T01:23:47.186Z,21.70
2019-04-28T01:24:47.149Z,16.30
2019-04-28T05:02:51.264Z,20.00
2019-04-28T05:03:43.053Z,24.40
2019-04-28T05:04:41.979Z,22.30
2019-04-28T05:05:41.928Z,21.80
2019-04-28T05:06:41.955Z,26.10
2019-04-28T05:07:41.957Z,26.00
2019-04-28T05:08:41.887Z,22.10
2019-04-28T05:09:41.884Z,24.80
2019-04-28T05:10:41.886Z,19.70
2019-04-28T05:11:41.920Z,21.50
2019-04-28T05:12:42.096Z,21.40
2019-04-28T05:13:41.882Z,20.80
2019-04-28T05:14:52.795Z,28.20
2019-04-28T05:15:41.887Z,21.80
2019-04-28T05:16:41.805Z,23.30
2019-04-28T05:17:41.824Z,19.60
2019-04-28T05:18:41.805Z,20.90
2019-04-28T05:19:41.786Z,24.60
2019-04-28T05:20:41.819Z,20.60
2019-04-28T05:21:41.745Z,19.80
2019-04-28T05:22:42.700Z,23.40
2019-04-28T05:23:42.675Z,21.10
2019-04-28T05:24:41.783Z,24.90
2019-04-28T05:25:41.706Z,20.90
2019-04-28T05:26:47.665Z,24.10
2019-04-28T05:27:42.691Z,20.90
2019-04-28T05:28:50.518Z,22.20
2019-04-28T05:29:42.720Z,24.60
2019-04-28T05:30:43.104Z,23.10
2019-04-28T05:31:42.693Z,22.00
2019-04-28T05:38:20.136Z,15.70
2019-04-28T05:39:19.641Z,22.20
2019-04-28T05:45:41.034Z,17.80
2019-04-28T05:50:33.459Z,24.30
2019-04-28T05:51:33.087Z,22.70
2019-04-28T05:52:32.945Z,24.00
2019-04-28T05:53:33.090Z,22.00
2019-04-28T05:54:33.082Z,20.50
2019-04-28T05:55:32.971Z,20.40
2019-04-28T05:56:32.988Z,21.50
2019-04-28T05:57:32.915Z,23.30
2019-04-28T05:58:32.898Z,24.50
2019-04-28T05:59:32.892Z,23.40
2019-04-28T06:00:33.122Z,21.70
2019-04-28T06:11:22.648Z,18.90
2019-04-28T06:15:05.664Z,10.10
2019-04-28T06:16:22.147Z,19.70
2019-04-28T06:17:04.370Z,19.10
2019-04-28T06:18:04.813Z,22.20
2019-04-28T07:15:41.681Z,21.80
2019-04-28T07:16:41.240Z,18.30
2019-04-28T07:17:41.404Z,18.70
2019-04-28T07:18:41.230Z,22.20
2019-04-28T07:19:41.244Z,20.30
2019-04-28T07:20:41.163Z,19.60
2019-04-28T07:21:41.183Z,22.30
2019-04-28T07:22:41.140Z,20.30
2019-04-28T07:23:41.171Z,23.50
2019-04-28T07:24:41.221Z,24.30
2019-04-28T07:25:41.596Z,22.50
2019-04-28T07:26:41.305Z,21.70
2019-04-28T07:27:41.121Z,20.60
2019-04-28T07:28:41.182Z,30.00
2019-04-28T07:29:41.114Z,23.40
2019-04-28T07:30:41.063Z,19.40
2019-04-28T07:31:41.045Z,21.80
2019-04-28T07:32:41.051Z,25.10
2019-04-28T07:33:41.913Z,21.90
2019-04-28T07:36:21.987Z,18.10
2019-04-28T07:37:21.035Z,24.40
2019-04-28T07:38:21.121Z,33.00
2019-04-28T07:39:21.025Z,22.20
2019-04-28T07:40:21.114Z,22.10
2019-04-28T07:41:20.900Z,18.50
2019-04-28T07:42:21.010Z,22.50
2019-04-28T07:45:29.953Z,21.50
2019-04-28T07:46:29.786Z,18.70
2019-04-28T07:47:29.655Z,24.70
2019-04-28T07:48:29.656Z,19.40
2019-04-28T07:49:29.618Z,23.20
2019-04-28T07:50:29.671Z,23.40
2019-04-28T07:51:29.671Z,22.90
2019-04-28T07:52:29.608Z,22.80
2019-04-28T07:53:29.624Z,23.40
2019-04-28T07:54:29.565Z,21.60
2019-04-28T07:55:29.542Z,21.20
2019-04-28T07:56:29.600Z,20.50
2019-04-28T07:57:29.542Z,22.00
2019-04-28T07:58:29.557Z,21.40
2019-04-28T07:59:29.660Z,22.10
2019-04-28T08:00:29.575Z,21.40
2019-04-28T08:01:29.482Z,21.80
2019-04-28T08:02:29.590Z,21.50
2019-04-28T08:03:29.463Z,22.20
2019-04-28T08:04:29.481Z,22.10
2019-04-28T08:05:29.459Z,21.00
2019-04-28T08:06:29.500Z,22.30
2019-04-28T08:07:29.455Z,26.30
2019-04-28T08:08:29.401Z,26.20
2019-04-28T08:09:29.413Z,24.10
2019-04-28T08:10:29.400Z,20.60
2019-04-28T08:11:29.368Z,24.70
2019-04-28T08:12:29.364Z,21.20
2019-04-28T08:17:28.620Z,25.40
2019-04-28T08:18:28.194Z,20.10
2019-04-28T08:19:27.991Z,24.20
2019-04-28T08:20:27.990Z,19.50
2019-04-28T08:21:27.876Z,22.60
2019-04-28T08:22:27.908Z,21.60
2019-04-28T08:23:27.844Z,23.30
2019-04-28T08:24:27.858Z,25.80
2019-04-28T08:25:38.683Z,22.50
2019-04-28T08:26:28.768Z,23.00
2019-04-28T08:27:27.810Z,22.30
2019-04-28T08:31:50.999Z,17.60
2019-04-28T08:40:57.206Z,25.40
2019-04-28T08:41:57.146Z,19.90
2019-04-28T08:42:57.100Z,18.20
2019-04-28T08:43:58.792Z,18.20
2019-04-28T08:50:01.381Z,19.60
2019-04-28T08:51:01.368Z,15.60
2019-04-28T08:52:01.396Z,14.50
2019-04-28T08:53:01.382Z,19.40
2019-04-28T08:54:01.316Z,18.50
2019-04-28T08:56:30.180Z,14.70
2019-04-28T08:57:30.166Z,14.30
2019-04-28T08:58:30.117Z,14.50
2019-04-28T08:59:30.179Z,14.80
2019-04-28T09:00:38.693Z,16.00
2019-04-28T09:01:30.140Z,16.40
2019-04-28T09:02:30.274Z,14.70
2019-04-28T09:03:30.036Z,11.60
2019-04-28T09:04:30.082Z,15.30
2019-04-28T09:05:30.078Z,13.30
2019-04-28T09:06:30.034Z,15.10
2019-04-28T09:07:30.027Z,14.40
2019-04-28T09:08:30.070Z,15.00
2019-04-28T09:09:30.026Z,16.30
2019-04-28T09:13:31.202Z,10.90
2019-04-28T09:14:30.795Z,11.70
2019-04-28T09:15:30.714Z,12.80
2019-04-28T09:16:30.723Z,12.00
2019-04-28T09:17:30.689Z,12.80
2019-04-28T09:18:30.746Z,11.40
2019-04-28T09:19:30.707Z,14.40
2019-04-28T09:20:31.269Z,12.10
2019-04-28T09:21:30.665Z,15.50
2019-04-28T09:22:30.771Z,26.50
2019-04-28T09:24:48.755Z,11.90
2019-04-28T09:25:48.516Z,14.60
2019-04-28T09:26:48.535Z,23.30
2019-04-28T09:27:48.483Z,34.40
2019-04-28T09:28:48.535Z,25.50
2019-04-28T09:29:48.448Z,8.70
2019-04-28T09:30:48.397Z,9.90
2019-04-28T09:31:48.428Z,16.00
2019-04-28T09:32:48.381Z,15.40
2019-04-28T09:33:48.374Z,46.10
2019-04-28T09:34:48.359Z,8.30
2019-04-28T09:35:48.372Z,17.20
2019-04-28T09:36:48.460Z,56.90
2019-04-28T09:37:48.320Z,10.60
2019-04-28T09:38:48.354Z,11.70
2019-04-28T09:39:48.305Z,9.50
2019-04-28T09:40:48.307Z,36.90
2019-04-28T09:41:49.035Z,10.60
2019-04-28T09:42:48.334Z,9.20
2019-04-28T09:43:48.277Z,11.30
2019-04-28T09:44:48.249Z,9.50
2019-04-28T09:45:48.283Z,11.00
2019-04-28T09:46:48.522Z,10.50
2019-04-28T09:47:48.290Z,9.50
2019-04-28T09:48:48.240Z,11.20
2019-04-28T09:49:48.220Z,9.70
2019-04-28T09:56:21.920Z,7.50
2019-04-28T10:03:39.443Z,15.30
2019-04-28T10:08:29.558Z,6.80
2019-04-28T10:32:53.112Z,8.70
2019-04-28T10:33:38.503Z,5.90
2019-04-28T10:34:38.504Z,9.30
2019-04-28T10:35:38.605Z,9.80
2019-04-28T11:07:35.514Z,13.60
2019-04-28T11:08:35.015Z,11.50
2019-04-28T11:09:35.044Z,8.00
2019-04-28T11:10:34.981Z,7.30
2019-04-28T11:11:35.214Z,6.40
2019-04-28T11:12:34.931Z,10.50
2019-04-28T11:13:34.959Z,6.10
2019-04-28T11:14:34.899Z,8.50
2019-04-28T11:15:34.898Z,9.60
2019-04-28T11:16:34.918Z,7.10
2019-04-28T11:17:34.894Z,8.00
2019-04-28T11:18:35.009Z,10.20
2019-04-28T11:19:34.885Z,8.50
2019-04-28T11:20:34.906Z,7.90
2019-04-28T11:21:34.848Z,10.60
2019-04-28T11:22:34.823Z,7.40
2019-04-28T11:23:34.806Z,7.60
2019-04-28T11:24:37.072Z,9.00
2019-04-28T11:25:35.963Z,9.70
2019-04-28T11:26:34.810Z,8.50
2019-04-28T11:27:35.151Z,7.90
2019-04-28T11:30:37.271Z,8.40
2019-04-28T11:31:37.166Z,7.50
2019-04-28T11:34:48.776Z,12.10
2019-04-28T11:35:48.616Z,11.00
2019-04-28T11:36:50.429Z,8.70
2019-04-28T11:37:48.735Z,7.80
2019-04-28T11:40:00.925Z,6.00
2019-04-28T11:41:11.396Z,8.10
2019-04-28T11:45:09.933Z,7.90
2019-04-28T11:57:34.265Z,7.50
2019-04-28T11:58:37.982Z,10.20
2019-04-28T12:00:51.181Z,7.10
2019-04-28T12:01:50.937Z,7.40
2019-04-28T12:02:51.012Z,5.10
2019-04-28T12:03:50.870Z,6.30
2019-04-28T12:04:50.858Z,6.00
2019-04-28T12:05:50.945Z,6.90
2019-04-28T12:06:50.844Z,9.20
2019-04-28T12:07:50.829Z,8.20
2019-04-28T12:08:50.867Z,7.70
2019-04-28T12:10:03.360Z,9.60
2019-04-28T12:10:51.835Z,9.40
2019-04-28T12:11:50.868Z,8.40
2019-04-28T12:12:50.814Z,7.50
2019-04-28T12:13:50.795Z,7.30
2019-04-28T12:14:50.769Z,9.30
2019-04-28T12:15:50.750Z,7.90
2019-04-28T12:16:50.737Z,8.20
2019-04-28T12:17:50.721Z,8.60
2019-04-28T12:18:50.714Z,6.80
2019-04-28T12:19:50.800Z,8.20
2019-04-28T12:20:50.686Z,7.30
2019-04-28T12:21:50.661Z,6.10
2019-04-28T12:22:50.654Z,9.40
2019-04-28T12:23:50.661Z,7.60
2019-04-28T12:24:50.637Z,8.00
2019-04-28T12:25:50.626Z,7.50
2019-04-28T12:26:50.621Z,7.60
2019-04-28T12:27:50.621Z,7.10
2019-04-28T12:28:50.589Z,5.30
2019-04-28T12:29:50.640Z,6.60
2019-04-28T12:30:50.567Z,7.80
2019-04-28T12:31:50.579Z,5.10
2019-04-28T12:32:50.555Z,7.40
2019-04-28T12:33:50.533Z,5.60
2019-04-28T12:58:38.488Z,3.60
2019-04-28T12:59:38.013Z,3.90
2019-04-28T13:00:37.983Z,5.70
2019-04-28T13:02:55.865Z,6.50
2019-04-28T13:03:55.862Z,5.40
2019-04-28T13:34:26.314Z,4.30
2019-04-28T13:35:25.627Z,5.80
2019-04-28T13:36:26.711Z,6.60
2019-04-28T13:37:25.598Z,10.30
2019-04-28T13:38:25.578Z,7.10
2019-04-28T13:39:25.566Z,6.90
2019-04-28T13:40:25.597Z,5.50
2019-04-28T13:41:25.551Z,9.30
2019-04-28T13:42:25.547Z,7.60
2019-04-28T13:43:25.573Z,6.90
2019-04-28T13:44:25.573Z,5.80
2019-04-28T13:45:25.568Z,79.70
2019-04-28T13:46:25.608Z,7.40
2019-04-28T13:50:14.382Z,8.80
2019-04-28T13:51:14.305Z,6.90
2019-04-28T13:52:15.292Z,5.50
2019-04-28T13:53:14.239Z,5.50
2019-04-28T13:54:14.258Z,20.10
2019-04-28T13:55:14.240Z,18.20
2019-04-28T14:25:29.800Z,11.40
2019-04-28T14:26:30.732Z,8.40
2019-04-28T14:34:49.860Z,4.90
2019-04-28T14:37:02.204Z,4.80
2019-04-28T14:38:16.438Z,5.60
2019-04-28T14:39:01.872Z,6.80
2019-04-28T14:40:01.861Z,7.10
2019-04-28T14:41:12.566Z,5.10
2019-04-28T14:42:01.865Z,8.60
2019-04-28T14:43:01.862Z,7.10
2019-04-28T14:47:49.608Z,5.00
2019-04-28T14:50:53.774Z,9.80
2019-04-28T14:52:03.674Z,7.70
2019-04-28T14:52:53.170Z,7.90
2019-04-28T14:59:03.991Z,14.80
2019-04-28T15:00:04.010Z,18.30
2019-04-28T15:21:27.952Z,12.20
2019-04-28T15:22:27.581Z,40.50
2019-04-28T15:23:27.376Z,18.20
2019-04-28T15:24:27.332Z,36.80
2019-04-28T15:25:27.322Z,8.10
2019-04-28T15:26:27.448Z,34.90
2019-04-28T15:27:27.308Z,13.50
2019-04-28T15:28:27.267Z,15.20
2019-04-28T15:29:27.294Z,16.30
2019-04-28T15:30:27.264Z,21.80
2019-04-28T15:31:27.248Z,90.90
2019-04-28T15:32:27.225Z,79.30
2019-04-28T15:33:27.208Z,21.40
2019-04-28T15:34:27.302Z,28.10
2019-04-28T15:35:27.581Z,61.40
2019-04-28T15:36:27.177Z,37.30
2019-04-28T15:37:27.170Z,24.60
2019-04-28T15:38:27.184Z,14.10
2019-04-28T15:39:27.140Z,13.10
2019-04-28T15:40:27.141Z,7.40
2019-04-28T15:41:27.153Z,7.40
2019-04-28T15:42:27.169Z,6.40
2019-04-28T15:43:27.120Z,7.70
2019-04-28T15:44:27.098Z,7.00
2019-04-28T15:45:27.083Z,4.80
2019-04-28T15:46:27.065Z,5.90
2019-04-28T15:48:45.202Z,3.30
2019-04-28T15:49:44.808Z,5.40
2019-04-28T15:50:44.801Z,10.70
2019-04-28T15:51:44.769Z,6.80
2019-04-28T15:52:44.762Z,8.20
2019-04-28T15:53:44.785Z,7.30
2019-04-28T15:54:44.757Z,6.70
2019-04-28T15:55:44.809Z,8.60
2019-04-28T15:56:44.893Z,5.20
2019-04-28T15:57:44.743Z,5.40
2019-04-28T15:58:44.762Z,8.80
2019-04-28T15:59:44.689Z,6.80
2019-04-28T16:00:44.703Z,5.80
2019-04-28T16:01:44.682Z,7.70
2019-04-28T16:02:44.663Z,5.30
2019-04-28T16:03:44.688Z,4.90
2019-04-28T16:04:44.643Z,8.90
2019-04-28T16:05:44.619Z,6.30
2019-04-28T16:06:44.700Z,6.00
2019-04-28T16:07:44.619Z,9.80
2019-04-28T16:08:44.585Z,7.20
2019-04-28T16:09:51.529Z,5.90
2019-04-28T16:10:45.453Z,7.20
2019-04-28T16:11:44.600Z,5.10
2019-04-28T16:12:44.547Z,7.60
2019-04-28T16:13:44.722Z,5.80
2019-04-28T16:14:44.523Z,8.10
2019-04-28T16:15:44.994Z,5.50
2019-04-28T16:16:44.519Z,7.10
2019-04-28T16:17:44.488Z,6.20
2019-04-28T16:18:44.490Z,7.10
2019-04-28T16:19:44.492Z,4.50
2019-04-28T16:20:44.460Z,5.30
2019-04-28T16:21:44.568Z,5.40
2019-04-28T16:22:44.476Z,6.60
2019-04-28T16:23:44.434Z,6.90
2019-04-28T16:24:44.497Z,7.70
2019-04-28T16:25:44.412Z,6.50
2019-04-28T16:26:44.404Z,6.50
2019-04-28T16:27:44.945Z,6.40
2019-04-28T16:28:44.447Z,4.70
2019-04-28T16:29:44.429Z,6.50
2019-04-28T16:30:44.380Z,5.20
2019-04-28T16:31:44.342Z,5.50
2019-04-28T16:32:44.705Z,6.80
2019-04-28T16:33:54.152Z,7.40
2019-04-28T16:34:44.592Z,6.80
2019-04-28T16:35:44.330Z,5.40
2019-04-28T16:36:44.308Z,5.30
2019-04-28T16:37:44.273Z,5.60
2019-04-28T16:38:44.421Z,5.50
2019-04-28T17:03:19.355Z,3.30
2019-04-28T17:04:18.866Z,6.20
2019-04-28T17:05:18.803Z,5.10
2019-04-28T17:06:18.814Z,8.30
2019-04-28T17:07:18.923Z,7.30
2019-04-28T17:08:19.309Z,6.30
2019-04-28T17:09:28.518Z,5.10
2019-04-28T17:10:18.744Z,5.60
2019-04-28T17:11:18.747Z,8.40
2019-04-28T17:12:18.752Z,8.50
2019-04-28T17:13:18.798Z,5.80
2019-04-28T17:14:18.705Z,5.80
2019-04-28T17:15:18.696Z,7.30
2019-04-28T17:16:18.692Z,5.90
2019-04-28T17:17:18.677Z,5.20
2019-04-28T17:18:18.655Z,7.40
2019-04-28T17:19:18.667Z,7.10
2019-04-28T17:20:18.646Z,5.70
2019-04-28T17:21:18.647Z,7.70
2019-04-28T17:22:18.685Z,5.80
2019-04-28T17:23:18.628Z,5.90
2019-04-28T17:24:18.638Z,4.90
2019-04-28T17:25:18.595Z,10.30
2019-04-28T17:26:18.582Z,15.90
2019-04-28T17:27:18.575Z,6.60
2019-04-28T17:28:18.570Z,7.90
2019-04-28T17:29:18.540Z,5.10
2019-04-28T17:30:18.564Z,4.20
2019-04-28T17:31:18.534Z,5.20
2019-04-28T17:32:19.364Z,4.40
2019-04-28T17:33:18.496Z,6.80
2019-04-28T17:34:18.492Z,6.20
2019-04-28T17:35:18.520Z,5.40
2019-04-28T17:37:31.908Z,3.90
2019-04-28T17:38:32.927Z,5.10
2019-04-28T17:39:31.041Z,6.60
2019-04-28T17:40:30.956Z,5.70
2019-04-28T17:41:30.911Z,5.80
2019-04-28T17:42:30.911Z,7.80
2019-04-28T17:45:05.991Z,5.70
2019-04-28T18:03:20.446Z,5.90
2019-04-28T18:04:20.328Z,6.50
2019-04-28T18:12:59.824Z,3.20
2019-04-28T18:13:52.196Z,6.10
2019-04-28T18:23:55.139Z,3.10
2019-04-28T18:24:54.731Z,6.40
2019-04-28T18:26:09.972Z,5.60
2019-04-28T18:26:54.671Z,5.40
2019-04-28T18:27:54.707Z,5.50
2019-04-28T18:28:57.791Z,5.60
2019-04-28T18:29:56.918Z,4.90
2019-04-28T18:33:41.343Z,5.90
2019-04-28T18:34:40.472Z,5.00
2019-04-28T18:35:40.218Z,4.80
2019-04-28T18:36:40.147Z,7.20
2019-04-28T18:37:40.135Z,9.30
2019-04-28T18:38:40.139Z,6.10
2019-04-28T18:39:40.164Z,5.00
2019-04-28T18:40:40.097Z,7.50
2019-04-28T18:41:41.270Z,6.50
2019-04-28T18:42:40.195Z,6.00
2019-04-28T18:43:43.391Z,7.00
2019-04-28T18:44:40.167Z,6.70
2019-04-28T18:45:40.188Z,6.20
2019-04-28T18:48:00.805Z,4.50
2019-04-28T18:48:59.393Z,6.60
2019-04-28T18:49:59.348Z,6.60
2019-04-28T18:50:58.986Z,8.40
2019-04-28T18:51:59.148Z,8.10
2019-04-28T18:52:59.042Z,7.30
2019-04-28T18:53:58.959Z,6.80
2019-04-28T18:54:58.933Z,7.10
2019-04-28T18:55:58.976Z,9.40
2019-04-28T18:56:58.927Z,7.20
2019-04-28T18:57:58.892Z,8.10
2019-04-28T18:58:58.948Z,7.50
2019-04-28T18:59:58.867Z,8.00
2019-04-28T19:00:58.909Z,7.70
2019-04-28T19:01:58.930Z,7.80
2019-04-28T19:02:58.923Z,7.10
2019-04-28T19:03:58.911Z,9.50
2019-04-28T19:04:58.934Z,7.30
2019-04-28T19:05:58.863Z,8.50
2019-04-28T19:07:05.112Z,7.10
2019-04-28T19:07:59.782Z,8.00
2019-04-28T19:09:09.964Z,9.10
2019-04-28T19:09:58.896Z,6.70
2019-04-28T19:10:58.743Z,7.90
2019-04-28T19:11:58.772Z,9.70
2019-04-28T19:12:58.807Z,6.30
2019-04-28T19:13:58.706Z,7.50
2019-04-28T19:14:58.760Z,7.30
2019-04-28T19:15:58.790Z,7.00
2019-04-28T19:16:58.713Z,9.40
2019-04-28T19:17:58.833Z,8.60
2019-04-28T19:18:58.689Z,7.50
2019-04-28T19:19:58.675Z,8.70
2019-04-28T19:20:58.665Z,7.30
2019-04-28T19:21:58.645Z,7.20
2019-04-28T19:22:58.609Z,10.00
2019-04-28T19:23:58.627Z,10.70
2019-04-28T19:24:58.580Z,8.80
2019-04-28T19:25:58.702Z,11.30
2019-04-28T19:26:58.561Z,8.60
2019-04-28T19:27:58.596Z,10.30
2019-04-28T19:28:58.672Z,10.90
2019-04-28T19:29:58.530Z,11.30
2019-04-28T19:30:58.529Z,8.20
2019-04-28T19:31:58.607Z,10.20
2019-04-28T19:32:58.638Z,8.90
2019-04-28T19:33:58.494Z,8.10
2019-04-28T19:34:58.499Z,9.40
2019-04-28T19:35:58.469Z,8.90
2019-04-28T19:36:58.491Z,7.20
2019-04-28T19:37:58.460Z,9.60
2019-04-28T19:39:03.507Z,7.00
2019-04-28T19:39:59.484Z,7.60
2019-04-28T19:40:58.466Z,9.30
2019-04-28T19:41:58.458Z,6.80
2019-04-28T19:42:58.495Z,7.50
2019-04-28T19:43:58.382Z,7.50
2019-04-28T19:44:58.447Z,7.00
2019-04-28T19:45:58.431Z,8.70
2019-04-28T19:46:58.358Z,11.10
2019-04-28T19:47:58.340Z,11.60
2019-04-28T19:48:58.328Z,9.50
2019-04-28T19:49:58.326Z,9.90
2019-04-28T19:50:58.303Z,10.40
2019-04-28T19:51:58.399Z,11.90
2019-04-28T19:52:58.285Z,8.20
2019-04-28T19:53:58.303Z,9.20
2019-04-28T19:54:58.256Z,8.60
2019-04-28T19:55:58.262Z,8.70
2019-04-28T19:56:58.239Z,8.30
2019-04-28T19:57:58.283Z,12.80
2019-04-28T19:58:58.218Z,10.50
2019-04-28T19:59:58.277Z,8.40
2019-04-28T20:00:58.195Z,9.60
2019-04-28T20:01:58.177Z,8.60
2019-04-28T20:02:58.168Z,9.70
2019-04-28T20:03:58.182Z,9.30
2019-04-28T20:04:58.142Z,8.40
2019-04-28T20:05:58.145Z,8.30
2019-04-28T20:06:58.135Z,10.00
